createdAt,value
2018-06-06T00:00:53.427Z,99856.84
2018-06-06T00:03:56.346Z,99865.40
2018-06-06T00:06:59.288Z,99857.00
2018-06-06T00:10:02.292Z,99866.27
2018-06-06T00:13:05.232Z,99867.41
2018-06-06T00:16:08.179Z,99866.96
2018-06-06T00:19:11.134Z,99861.92
2018-06-06T00:22:14.088Z,99864.52
2018-06-06T00:25:17.029Z,99868.19
2018-06-06T00:28:19.993Z,99875.05
2018-06-06T00:31:22.905Z,99875.84
2018-06-06T00:34:25.841Z,99871.50
2018-06-06T00:37:28.777Z,99872.52
2018-06-06T00:40:31.670Z,99870.75
2018-06-06T00:43:34.584Z,99870.03
2018-06-06T00:46:37.604Z,99865.08
2018-06-06T00:49:40.517Z,99867.09
2018-06-06T00:52:43.479Z,99870.66
2018-06-06T00:55:46.432Z,99864.41
2018-06-06T00:58:49.339Z,99864.16
2018-06-06T01:01:52.246Z,99864.05
2018-06-06T01:04:55.191Z,99861.48
2018-06-06T01:07:58.186Z,99857.14
2018-06-06T01:11:01.102Z,99856.15
2018-06-06T01:14:04.285Z,99850.52
2018-06-06T01:17:07.202Z,99850.80
2018-06-06T01:20:10.144Z,99851.73
2018-06-06T01:23:13.079Z,99845.78
2018-06-06T01:26:16.026Z,99847.12
2018-06-06T01:29:18.938Z,99843.30
2018-06-06T01:32:21.866Z,99838.80
2018-06-06T01:35:24.768Z,99837.86
2018-06-06T01:38:27.679Z,99837.62
2018-06-06T01:41:30.625Z,99836.86
2018-06-06T01:44:33.561Z,99831.05
2018-06-06T01:47:36.462Z,99831.79
2018-06-06T01:50:39.398Z,99831.59
2018-06-06T01:53:42.329Z,99827.17
2018-06-06T01:56:45.277Z,99827.02
2018-06-06T01:59:48.222Z,99828.65
2018-06-06T02:02:51.132Z,99821.80
2018-06-06T02:05:54.063Z,99814.73
2018-06-06T02:08:57.009Z,99813.97
2018-06-06T02:11:59.966Z,99810.98
2018-06-06T02:15:02.927Z,99813.00
2018-06-06T02:18:05.857Z,99812.79
2018-06-06T02:21:08.770Z,99812.77
2018-06-06T02:24:21.605Z,99811.92
2018-06-06T02:27:26.166Z,99812.50
2018-06-06T02:30:29.138Z,99811.91
2018-06-06T02:33:33.999Z,99815.32
2018-06-06T02:36:39.010Z,99815.88
2018-06-06T02:39:43.837Z,99812.17
2018-06-06T02:42:46.737Z,99820.22
2018-06-06T02:45:49.755Z,99820.83
2018-06-06T02:48:55.292Z,99826.29
2018-06-06T02:51:59.244Z,99826.89
2018-06-06T02:55:02.193Z,99833.82
2018-06-06T02:58:55.820Z,99831.88
2018-06-06T03:01:59.943Z,99832.53
2018-06-06T03:05:03.915Z,99841.37
2018-06-06T03:08:21.253Z,99835.41
2018-06-06T03:11:24.580Z,99832.14
2018-06-06T03:14:28.555Z,99832.08
2018-06-06T03:17:31.451Z,99834.58
2018-06-06T03:20:35.901Z,99835.31
2018-06-06T03:23:42.516Z,99832.13
2018-06-06T03:26:51.171Z,99828.95
2018-06-06T03:30:07.028Z,99829.95
2018-06-06T03:33:10.894Z,99833.61
2018-06-06T03:36:13.868Z,99842.83
2018-06-06T03:39:16.797Z,99833.69
2018-06-06T03:42:21.146Z,99836.98
2018-06-06T03:45:25.429Z,99843.67
2018-06-06T03:48:30.521Z,99851.33
2018-06-06T03:51:33.447Z,99833.83
2018-06-06T03:54:36.951Z,99838.42
2018-06-06T03:57:39.877Z,99833.19
2018-06-06T04:00:42.782Z,99831.23
2018-06-06T04:03:45.704Z,99828.01
2018-06-06T04:06:48.587Z,99830.14
2018-06-06T04:09:51.520Z,99834.55
2018-06-06T04:12:54.480Z,99828.26
2018-06-06T04:15:57.371Z,99829.66
2018-06-06T04:19:00.389Z,99834.28
2018-06-06T04:22:03.316Z,99827.28
2018-06-06T04:25:06.301Z,99834.22
2018-06-06T04:28:09.408Z,99835.31
2018-06-06T04:31:12.333Z,99832.60
2018-06-06T04:34:15.313Z,99828.94
2018-06-06T04:37:18.206Z,99830.28
2018-06-06T04:40:21.141Z,99831.21
2018-06-06T04:43:24.069Z,99839.22
2018-06-06T04:46:26.981Z,99836.67
2018-06-06T04:49:30.017Z,99831.84
2018-06-06T04:52:32.972Z,99838.83
2018-06-06T04:55:35.912Z,99837.09
2018-06-06T04:58:38.822Z,99846.91
2018-06-06T05:01:41.770Z,99847.28
2018-06-06T05:04:44.704Z,99842.11
2018-06-06T05:07:47.616Z,99848.13
2018-06-06T05:10:50.561Z,99848.37
2018-06-06T05:13:53.480Z,99846.65
2018-06-06T05:16:56.366Z,99854.77
2018-06-06T05:19:59.376Z,99850.67
2018-06-06T05:23:02.325Z,99855.89
2018-06-06T05:26:05.277Z,99858.44
2018-06-06T05:29:08.192Z,99857.33
2018-06-06T05:32:11.311Z,99855.73
2018-06-06T05:35:14.229Z,99864.27
2018-06-06T05:38:18.286Z,99859.31
2018-06-06T05:41:21.176Z,99861.64
2018-06-06T05:44:24.100Z,99852.49
2018-06-06T05:47:28.285Z,99847.41
2018-06-06T05:50:32.678Z,99847.41
2018-06-06T05:53:35.995Z,99846.75
2018-06-06T05:56:38.926Z,99848.52
2018-06-06T05:59:42.117Z,99848.84
2018-06-06T06:02:45.095Z,99846.67
2018-06-06T06:05:47.986Z,99848.25
2018-06-06T06:08:51.013Z,99852.62
2018-06-06T06:11:53.929Z,99850.37
2018-06-06T06:14:56.865Z,99855.14
2018-06-06T06:17:59.906Z,99848.59
2018-06-06T06:21:02.811Z,99856.63
2018-06-06T06:24:05.845Z,99848.61
2018-06-06T06:27:08.756Z,99848.00
2018-06-06T06:30:11.745Z,99829.12
2018-06-06T06:33:14.688Z,99853.56
2018-06-06T06:36:17.590Z,99863.14
2018-06-06T06:39:20.622Z,99857.48
2018-06-06T06:42:23.550Z,99850.17
2018-06-06T06:45:26.844Z,99765.48
2018-06-06T06:48:29.795Z,99851.49
2018-06-06T06:51:32.691Z,99850.81
2018-06-06T06:54:35.610Z,99852.69
2018-06-06T06:57:38.514Z,99845.00
2018-06-06T07:00:41.456Z,99848.98
2018-06-06T07:03:44.338Z,99841.61
2018-06-06T07:06:47.298Z,99839.73
2018-06-06T07:09:50.172Z,99843.54
2018-06-06T07:12:53.084Z,99848.41
2018-06-06T07:15:56.054Z,99846.58
2018-06-06T07:18:59.059Z,99848.73
2018-06-06T07:22:01.995Z,99861.22
2018-06-06T07:25:05.121Z,99857.83
2018-06-06T07:28:08.050Z,99857.17
2018-06-06T07:31:10.929Z,99867.28
2018-06-06T07:34:13.857Z,99863.87
2018-06-06T07:37:16.817Z,99861.89
2018-06-06T07:40:19.765Z,99868.25
2018-06-06T07:43:22.676Z,99859.55
2018-06-06T07:46:25.604Z,99861.36
2018-06-06T07:49:28.494Z,99856.54
2018-06-06T07:52:31.436Z,99862.02
2018-06-06T07:55:34.321Z,99864.52
2018-06-06T07:58:37.237Z,99864.63
2018-06-06T08:01:40.184Z,99863.83
2018-06-06T08:04:43.119Z,99864.68
2018-06-06T08:07:46.044Z,99866.42
2018-06-06T08:10:49.080Z,99857.41
2018-06-06T08:13:51.985Z,99853.38
2018-06-06T08:16:54.926Z,99855.10
2018-06-06T08:19:58.073Z,99858.51
2018-06-06T08:23:00.954Z,99853.80
2018-06-06T08:26:03.865Z,99847.20
2018-06-06T08:29:06.750Z,99848.98
2018-06-06T08:32:09.645Z,99845.26
2018-06-06T08:35:12.529Z,99846.35
2018-06-06T08:38:15.467Z,99843.91
2018-06-06T08:41:18.380Z,99840.20
2018-06-06T08:44:21.290Z,99847.21
2018-06-06T08:47:24.220Z,99846.23
2018-06-06T08:50:27.186Z,99854.20
2018-06-06T08:53:30.128Z,99855.80
2018-06-06T08:56:33.117Z,99857.05
2018-06-06T08:59:36.000Z,99840.03
2018-06-06T09:02:38.933Z,99857.73
2018-06-06T09:05:41.865Z,99852.95
2018-06-06T09:08:44.796Z,99856.73
2018-06-06T09:11:47.721Z,99864.03
2018-06-06T09:14:50.650Z,99863.54
2018-06-06T09:17:53.570Z,99860.78
2018-06-06T09:20:56.519Z,99859.52
2018-06-06T09:24:00.257Z,99846.61
2018-06-06T09:27:03.261Z,99856.72
2018-06-06T09:30:06.209Z,99851.45
2018-06-06T09:33:09.127Z,99852.38
2018-06-06T09:36:12.075Z,99854.10
2018-06-06T09:39:14.989Z,99858.93
2018-06-06T09:42:17.942Z,99863.31
2018-06-06T09:45:20.914Z,99865.48
2018-06-06T09:48:23.837Z,99865.35
2018-06-06T09:51:26.773Z,99863.80
2018-06-06T09:54:29.707Z,99858.03
2018-06-06T09:57:32.637Z,99868.62
2018-06-06T10:00:41.261Z,99871.77
2018-06-06T10:03:44.183Z,99866.53
2018-06-06T10:06:47.110Z,99868.09
2018-06-06T10:09:50.041Z,99870.47
2018-06-06T10:12:52.929Z,99872.08
2018-06-06T10:15:55.853Z,99870.84
2018-06-06T10:18:58.778Z,99873.94
2018-06-06T10:22:01.777Z,99868.24
2018-06-06T10:25:04.714Z,99865.52
2018-06-06T10:28:07.665Z,99868.00
2018-06-06T10:31:10.561Z,99862.80
2018-06-06T10:34:13.568Z,99869.16
2018-06-06T10:37:16.440Z,99863.72
2018-06-06T10:40:19.372Z,99858.66
2018-06-06T10:43:22.268Z,99853.14
2018-06-06T10:46:25.201Z,99859.33
2018-06-06T10:49:28.086Z,99861.88
2018-06-06T10:52:31.019Z,99858.00
2018-06-06T10:55:33.927Z,99860.36
2018-06-06T10:58:36.840Z,99852.89
2018-06-06T11:01:39.765Z,99853.30
2018-06-06T11:04:49.432Z,99856.75
2018-06-06T11:07:52.392Z,99841.47
2018-06-06T11:10:55.304Z,99841.63
2018-06-06T11:13:58.261Z,99847.20
2018-06-06T11:17:01.150Z,99849.95
2018-06-06T11:20:04.219Z,99844.74
2018-06-06T11:23:07.152Z,99834.16
2018-06-06T11:26:10.074Z,99828.89
2018-06-06T11:29:12.973Z,99829.72
2018-06-06T11:32:15.894Z,99832.01
2018-06-06T11:35:18.824Z,99834.52
2018-06-06T11:38:21.755Z,99831.81
2018-06-06T11:41:24.689Z,99832.64
2018-06-06T11:44:27.620Z,99832.42
2018-06-06T11:47:30.554Z,99830.00
2018-06-06T11:50:33.435Z,99827.16
2018-06-06T11:53:36.340Z,99829.83
2018-06-06T11:56:39.299Z,99829.51
2018-06-06T11:59:42.297Z,99825.70
2018-06-06T12:02:45.225Z,99823.61
2018-06-06T12:05:48.297Z,99823.82
2018-06-06T12:08:51.222Z,99815.43
2018-06-06T12:11:54.253Z,99822.87
2018-06-06T12:14:57.168Z,99824.39
2018-06-06T12:18:00.100Z,99817.47
2018-06-06T12:21:03.078Z,99814.22
2018-06-06T12:24:06.263Z,99816.66
2018-06-06T12:27:09.208Z,99813.88
2018-06-06T12:30:12.173Z,99814.47
2018-06-06T12:33:15.086Z,99814.44
2018-06-06T12:36:18.044Z,99816.41
2018-06-06T12:39:21.079Z,99814.19
2018-06-06T12:42:23.984Z,99812.77
2018-06-06T12:45:26.908Z,99809.33
2018-06-06T12:48:29.800Z,99804.37
2018-06-06T12:51:32.717Z,99797.75
2018-06-06T12:54:35.622Z,99792.50
2018-06-06T12:57:38.553Z,99797.81
2018-06-06T13:00:41.496Z,99794.93
2018-06-06T13:03:44.389Z,99796.61
2018-06-06T13:06:47.336Z,99797.55
2018-06-06T13:09:50.265Z,99797.95
2018-06-06T13:12:53.169Z,99799.02
2018-06-06T13:15:56.210Z,99796.13
2018-06-06T13:18:59.136Z,99788.72
2018-06-06T13:22:02.038Z,99797.59
2018-06-06T13:25:04.962Z,99786.88
2018-06-06T13:28:07.857Z,99779.04
2018-06-06T13:31:10.754Z,99781.51
2018-06-06T13:34:14.507Z,99782.55
2018-06-06T13:37:18.637Z,99775.05
2018-06-06T13:40:22.331Z,99776.89
2018-06-06T13:43:25.427Z,99770.20
2018-06-06T13:46:28.373Z,99780.33
2018-06-06T13:49:31.331Z,99776.69
2018-06-06T13:52:34.249Z,99770.25
2018-06-06T13:55:37.158Z,99769.39
2018-06-06T13:58:40.062Z,99771.00
2018-06-06T14:01:43.003Z,99775.31
2018-06-06T14:04:45.928Z,99769.56
2018-06-06T14:07:48.875Z,99768.00
2018-06-06T14:10:51.792Z,99757.95
2018-06-06T14:13:54.702Z,99755.38
2018-06-06T14:16:57.605Z,99757.44
2018-06-06T14:20:00.521Z,99750.78
2018-06-06T14:23:03.464Z,99750.89
2018-06-06T14:26:06.354Z,99752.83
2018-06-06T14:29:09.287Z,99752.64
2018-06-06T14:32:12.296Z,99746.84
2018-06-06T14:35:15.232Z,99749.06
2018-06-06T14:38:18.160Z,99749.57
2018-06-06T14:41:26.686Z,99757.28
2018-06-06T14:44:29.585Z,99760.83
2018-06-06T14:47:32.518Z,99751.62
2018-06-06T14:51:14.442Z,99750.95
2018-06-06T14:54:17.365Z,99743.08
2018-06-06T14:57:20.289Z,99747.34
2018-06-06T15:00:23.214Z,99734.18
2018-06-06T15:03:26.150Z,99731.95
2018-06-06T15:06:29.088Z,99733.85
2018-06-06T15:09:32.005Z,99733.17
2018-06-06T15:12:34.925Z,99732.97
2018-06-06T15:15:37.830Z,99728.56
2018-06-06T15:18:40.749Z,99735.05
2018-06-06T15:21:43.697Z,99735.92
2018-06-06T15:24:46.608Z,99735.25
2018-06-06T15:27:49.557Z,99730.61
2018-06-06T15:30:52.457Z,99723.44
2018-06-06T15:33:55.389Z,99727.08
2018-06-06T15:36:58.333Z,99727.31
2018-06-06T15:40:01.282Z,99730.92
2018-06-06T15:43:04.489Z,99730.80
2018-06-06T15:46:07.693Z,99732.48
2018-06-06T15:49:10.625Z,99728.52
2018-06-06T15:52:13.673Z,99732.45
2018-06-06T15:55:16.589Z,99733.63
2018-06-06T15:58:19.504Z,99725.08
2018-06-06T16:01:22.440Z,99726.76
2018-06-06T16:04:25.421Z,99718.81
2018-06-06T16:07:28.872Z,99722.45
2018-06-06T16:10:31.820Z,99724.16
2018-06-06T16:13:34.775Z,99721.91
2018-06-06T16:16:37.683Z,99719.31
2018-06-06T16:19:40.611Z,99720.47
2018-06-06T16:22:43.511Z,99718.02
2018-06-06T16:25:46.487Z,99723.69
2018-06-06T16:28:49.382Z,99722.42
2018-06-06T16:31:52.317Z,99722.72
2018-06-06T16:34:55.241Z,99724.76
2018-06-06T16:37:58.140Z,99717.77
2018-06-06T16:41:01.034Z,99724.64
2018-06-06T16:44:04.036Z,99718.53
2018-06-06T16:47:06.956Z,99719.41
2018-06-06T16:50:09.858Z,99711.59
2018-06-06T16:53:12.779Z,99710.23
2018-06-06T16:56:15.685Z,99709.67
2018-06-06T16:59:18.857Z,99712.06
2018-06-06T17:02:21.895Z,99715.73
2018-06-06T17:05:25.262Z,99712.55
2018-06-06T17:08:28.312Z,99711.62
2018-06-06T17:11:31.209Z,99712.44
2018-06-06T17:14:34.439Z,99717.55
2018-06-06T17:17:38.483Z,99712.27
2018-06-06T17:20:41.706Z,99712.98
2018-06-06T17:23:44.675Z,99710.69
2018-06-06T17:26:48.440Z,99702.98
2018-06-06T17:29:51.333Z,99705.70
2018-06-06T17:32:54.243Z,99716.11
2018-06-06T17:35:57.224Z,99709.34
2018-06-06T17:39:00.242Z,99716.70
2018-06-06T17:42:03.319Z,99717.06
2018-06-06T17:45:07.161Z,99715.98
2018-06-06T17:48:10.537Z,99727.70
2018-06-06T17:51:18.651Z,99727.65
2018-06-06T17:54:22.619Z,99728.33
2018-06-06T17:57:26.224Z,99731.44
2018-06-06T18:00:29.741Z,99734.52
2018-06-06T18:03:33.370Z,99735.47
2018-06-06T18:06:37.088Z,99742.52
2018-06-06T18:09:40.559Z,99743.98
2018-06-06T18:12:44.246Z,99746.77
2018-06-06T18:15:47.803Z,99758.13
2018-06-06T18:18:50.936Z,99760.16
2018-06-06T18:21:54.409Z,99762.97
2018-06-06T18:24:58.161Z,99773.23
2018-06-06T18:28:01.916Z,99777.08
2018-06-06T18:31:06.810Z,99778.52
2018-06-06T18:34:09.899Z,99775.24
2018-06-06T18:37:13.383Z,99778.60
2018-06-06T18:40:16.388Z,99777.25
2018-06-06T18:43:19.357Z,99780.45
2018-06-06T18:46:22.329Z,99778.38
2018-06-06T18:49:25.535Z,99786.19
2018-06-06T18:52:28.485Z,99780.13
2018-06-06T18:55:31.444Z,99785.03
2018-06-06T18:58:34.402Z,99786.89
2018-06-06T19:01:37.424Z,99766.30
2018-06-06T19:04:40.420Z,99781.83
2018-06-06T19:07:43.360Z,99781.13
2018-06-06T19:10:46.341Z,99779.09
2018-06-06T19:13:50.521Z,99778.80
2018-06-06T19:16:54.467Z,99779.69
2018-06-06T19:19:57.569Z,99781.02
2018-06-06T19:23:01.963Z,99779.02
2018-06-06T19:26:05.881Z,99777.49
2018-06-06T19:29:09.555Z,99774.83
2018-06-06T19:32:12.541Z,99776.98
2018-06-06T19:35:15.921Z,99776.31
2018-06-06T19:38:19.532Z,99777.27
2018-06-06T19:41:23.046Z,99786.63
2018-06-06T19:44:27.059Z,99785.13
2018-06-06T19:47:30.608Z,99785.53
2018-06-06T19:50:34.290Z,99791.48
2018-06-06T19:53:38.424Z,99798.16
2018-06-06T19:56:42.119Z,99797.91
2018-06-06T19:59:45.591Z,99798.55
2018-06-06T20:02:48.649Z,99800.20
2018-06-06T20:05:51.695Z,99803.82
2018-06-06T20:08:55.231Z,99806.80
2018-06-06T20:11:58.900Z,99807.08
2018-06-06T20:15:02.767Z,99816.29
2018-06-06T20:18:05.945Z,99823.94
2018-06-06T20:21:09.412Z,99827.28
2018-06-06T20:24:13.425Z,99835.88
2018-06-06T20:27:16.760Z,99833.67
2018-06-06T20:30:19.773Z,99835.41
2018-06-06T20:33:23.832Z,99831.20
2018-06-06T20:36:27.385Z,99839.66
2018-06-06T20:39:30.395Z,99836.61
2018-06-06T20:42:33.416Z,99840.67
2018-06-06T20:45:36.421Z,99849.42
2018-06-06T20:48:39.419Z,99841.92
2018-06-06T20:51:42.773Z,99843.05
2018-06-06T20:57:55.550Z,99838.51
2018-06-06T21:00:58.802Z,99838.63
2018-06-06T21:04:01.780Z,99808.97
2018-06-06T21:07:05.803Z,99848.94
2018-06-06T21:10:08.808Z,99845.11
2018-06-06T21:13:12.367Z,99849.42
2018-06-06T21:16:15.716Z,99847.20
2018-06-06T21:19:18.691Z,99844.84
2018-06-06T21:22:21.661Z,99842.62
2018-06-06T21:25:27.237Z,99836.11
2018-06-06T21:28:30.392Z,99835.84
2018-06-06T21:31:33.375Z,99839.14
2018-06-06T21:34:36.392Z,99841.71
2018-06-06T21:37:39.348Z,99837.52
2018-06-06T21:40:42.282Z,99843.77
2018-06-06T21:43:45.216Z,99836.27
2018-06-06T21:46:48.139Z,99841.67
2018-06-06T21:49:51.053Z,99836.05
2018-06-06T21:52:54.053Z,99833.41
2018-06-06T21:55:56.997Z,99842.14
2018-06-06T21:58:59.932Z,99836.57
2018-06-06T22:02:02.882Z,99833.03
2018-06-06T22:05:06.304Z,99829.66
2018-06-06T22:08:09.234Z,99834.47
2018-06-06T22:11:12.171Z,99828.80
2018-06-06T22:14:15.088Z,99830.98
2018-06-06T22:17:18.002Z,99830.72
2018-06-06T22:20:20.935Z,99809.92
2018-06-06T22:23:23.837Z,99835.98
2018-06-06T22:26:26.780Z,99833.47
2018-06-06T22:29:29.669Z,99829.40
2018-06-06T22:32:32.603Z,99833.97
2018-06-06T22:35:35.634Z,99830.23
2018-06-06T22:38:38.566Z,99832.04
2018-06-06T22:41:41.465Z,99830.97
2018-06-06T22:44:44.352Z,99831.04
2018-06-06T22:47:47.283Z,99829.94
2018-06-06T22:50:50.209Z,99829.41
2018-06-06T22:53:53.133Z,99829.17
2018-06-06T22:56:56.076Z,99787.74
2018-06-06T22:59:59.020Z,99825.96
2018-06-06T23:03:01.970Z,99824.20
2018-06-06T23:06:04.893Z,99831.42
2018-06-06T23:09:07.801Z,99830.80
2018-06-06T23:12:10.679Z,99824.55
2018-06-06T23:15:13.656Z,99834.70
2018-06-06T23:18:16.633Z,99830.24
2018-06-06T23:21:19.585Z,99829.06
2018-06-06T23:24:23.031Z,99825.50
2018-06-06T23:27:25.949Z,99827.72
2018-06-06T23:30:28.869Z,99824.25
2018-06-06T23:33:31.833Z,99818.24
2018-06-06T23:36:34.759Z,99811.77
2018-06-06T23:39:37.673Z,99815.33
2018-06-06T23:42:40.612Z,99811.63
2018-06-06T23:45:43.530Z,99810.17
2018-06-06T23:48:46.421Z,99805.72
2018-06-06T23:51:49.335Z,99804.47
2018-06-06T23:54:52.269Z,99802.11
2018-06-06T23:57:55.170Z,99788.36
